Mobile, AL

7:50 AM CST on December 07, 2016 (GMT -0600)
Breckenridge Subdivision | | Change Station

Elev 194 ft 30.69 °N, 88.28 °W | Updated 20 seconds ago

Overcast
Overcast
52.8 °F
Feels Like 52.8 °F
N
0.0
Wind Variable Wind from NW
Gusts 0.0 mph

Today
High -- | Low -- °F
--% Chance of Precip.
Yesterday
High -- | Low -- °F
Precip. -- in
Pressure 30.11 in
Visibility 7.0 miles
Clouds Few 400 ft
Overcast 1000 ft
Dew Point 52 °F
Humidity 96%
Rainfall 0.00 in
Snow Depth Not available.
6:37 AM 4:51 PM
First Quarter, 52% visible
SPECI KMOB 071337Z 00000KT 7SM FEW004 OVC010 12/09 A3011 RMK AO2 T01170094
Pressure 30.11 in
Visibility 7.0 miles
Clouds Few 400 ft
Overcast 1000 ft
Dew Point 52 °F
Humidity 96%
Rainfall 0.00 in
Snow Depth Not available.
6:37 AM 4:51 PM
First Quarter, 52% visible
SPECI KMOB 071337Z 00000KT 7SM FEW004 OVC010 12/09 A3011 RMK AO2 T01170094

10-Day Weather Forecast

Almanac

Astronomy

Dec. 07, 2016 Rise Set
Actual Time
Civil Twilight
Nautical Twilight
Astronomical Twilight
Moon
Length of Visible Light
Length of Day
Tomorrow will be .
, % of the Moon is Illuminated

Today's Extremes

State Highs State Lows

Community

WunderPhotos

Upload Photos

1,956,114 photos uploaded!

WunderBlog® & News

Nearby

Air Quality

  Air Quality AQ Index Pollutant
Not available.

Snow Depth

Station Depth Elevation

Earthquake Activity

City Distance Mag. Time & Date
Minimum magnitude displayed is 2.5.

Coastal Water Temperatures

Place Temperature

Stations

Nearby Weather Stations

Station Location Temp. Windchill Dew Point Humidity Wind Precip. Elev Updated Type
                   

Watches & Warnings

There are currently no watches in effect.